AAL1760 KCLT-KLGA
Flight info
| Callsign | AAL1760 |
|---|---|
| Flight time | N/A |
| Altitude | 37000 |
| Route | BARMY5 RDU NOWAE Q87 HURTS PROUD2 |
| Aircraft | A320/M-SDE3FGHIRWY/LB1 |
Departure
| Time | 2026-05-04 21:52 |
|---|---|
| Airport | Charlotte Douglas International Airport (KCLT) |
Arrival
| Time | N/A |
|---|---|
| Airport | LaGuardia Airport (KLGA) |
| Time | Latitude | Longitude | Altitude | Speed | Heading |
|---|---|---|---|---|---|
| 2026-05-04 21:23 | 35.21931 | -80.94208 | 731 ft | 0 kts | 260° |
| 2026-05-04 21:42 | 35.21931 | -80.94205 | 732 ft | 3 kts | 261° |
| 2026-05-04 21:42 | 35.21931 | -80.94176 | 732 ft | 4 kts | 296° |
| 2026-05-04 21:42 | 35.21915 | -80.94151 | 730 ft | 2 kts | 320° |
| 2026-05-04 21:43 | 35.21900 | -80.94133 | 732 ft | 4 kts | 299° |
| 2026-05-04 21:43 | 35.21895 | -80.94106 | 732 ft | 4 kts | 244° |
| 2026-05-04 21:43 | 35.21910 | -80.94091 | 732 ft | 4 kts | 175° |
| 2026-05-04 21:43 | 35.21929 | -80.94093 | 731 ft | 0 kts | 175° |
| 2026-05-04 21:45 | 35.21924 | -80.94092 | 731 ft | 3 kts | 175° |
| 2026-05-04 21:46 | 35.21884 | -80.94071 | 731 ft | 10 kts | 143° |
| 2026-05-04 21:46 | 35.21834 | -80.94017 | 732 ft | 9 kts | 138° |
| 2026-05-04 21:46 | 35.21799 | -80.93967 | 731 ft | 7 kts | 99° |
| 2026-05-04 21:46 | 35.21822 | -80.93923 | 731 ft | 13 kts | 48° |
| 2026-05-04 21:47 | 35.21885 | -80.93835 | 732 ft | 13 kts | 49° |
| 2026-05-04 21:47 | 35.21942 | -80.93756 | 732 ft | 11 kts | 48° |
| 2026-05-04 21:47 | 35.21971 | -80.93718 | 732 ft | 0 kts | 42° |
| 2026-05-04 21:48 | 35.21994 | -80.93716 | 733 ft | 9 kts | 5° |
| 2026-05-04 21:48 | 35.22083 | -80.93720 | 733 ft | 12 kts | 356° |
| 2026-05-04 21:48 | 35.22164 | -80.93727 | 733 ft | 11 kts | 356° |
| 2026-05-04 21:48 | 35.22234 | -80.93732 | 733 ft | 9 kts | 356° |
| 2026-05-04 21:49 | 35.22294 | -80.93738 | 733 ft | 8 kts | 356° |
| 2026-05-04 21:49 | 35.22345 | -80.93742 | 733 ft | 7 kts | 356° |
| 2026-05-04 21:49 | 35.22388 | -80.93746 | 733 ft | 7 kts | 356° |
| 2026-05-04 21:49 | 35.22454 | -80.93751 | 733 ft | 11 kts | 356° |
| 2026-05-04 21:50 | 35.22501 | -80.93708 | 734 ft | 8 kts | 73° |
| 2026-05-04 21:50 | 35.22505 | -80.93659 | 735 ft | 4 kts | 87° |
| 2026-05-04 21:50 | 35.22489 | -80.93624 | 735 ft | 5 kts | 146° |
| 2026-05-04 21:50 | 35.22455 | -80.93616 | 736 ft | 8 kts | 176° |
| 2026-05-04 21:51 | 35.22451 | -80.93616 | 736 ft | 0 kts | 177° |
| 2026-05-04 21:51 | 35.22384 | -80.93611 | 736 ft | 36 kts | 176° |
| 2026-05-04 21:51 | 35.21884 | -80.93568 | 737 ft | 104 kts | 176° |
| 2026-05-04 21:52 | 35.20965 | -80.93491 | 738 ft | 158 kts | 177° |
| 2026-05-04 21:52 | 35.19836 | -80.93395 | 1297 ft | 162 kts | 180° |
| 2026-05-04 21:52 | 35.18698 | -80.93287 | 2052 ft | 165 kts | 179° |
| 2026-05-04 21:52 | 35.17542 | -80.93167 | 2713 ft | 175 kts | 178° |
| 2026-05-04 21:53 | 35.16296 | -80.92803 | 2992 ft | 199 kts | 151° |
| 2026-05-04 21:53 | 35.15136 | -80.91753 | 3271 ft | 220 kts | 150° |
| 2026-05-04 21:53 | 35.13812 | -80.90609 | 3565 ft | 248 kts | 140° |
| 2026-05-04 21:53 | 35.12564 | -80.89036 | 4092 ft | 264 kts | 135° |
| 2026-05-04 21:54 | 35.11303 | -80.87360 | 4881 ft | 271 kts | 136° |
| 2026-05-04 21:54 | 35.09806 | -80.85978 | 5548 ft | 273 kts | 159° |
| 2026-05-04 21:54 | 35.07992 | -80.85315 | 5823 ft | 273 kts | 171° |
| 2026-05-04 21:54 | 35.06127 | -80.84840 | 5984 ft | 274 kts | 172° |
| 2026-05-04 21:55 | 35.04255 | -80.84383 | 6031 ft | 274 kts | 171° |
| 2026-05-04 21:55 | 35.02469 | -80.83646 | 6034 ft | 278 kts | 152° |
| 2026-05-04 21:55 | 35.01023 | -80.82072 | 6034 ft | 283 kts | 127° |
| 2026-05-04 21:55 | 35.00248 | -80.79878 | 6033 ft | 286 kts | 101° |
| 2026-05-04 21:56 | 35.00322 | -80.77453 | 6034 ft | 291 kts | 73° |
| 2026-05-04 21:56 | 35.01216 | -80.75235 | 6679 ft | 293 kts | 59° |
| 2026-05-04 21:56 | 35.02217 | -80.73059 | 7513 ft | 295 kts | 60° |
| 2026-05-04 21:56 | 35.03200 | -80.70840 | 8317 ft | 299 kts | 60° |
| 2026-05-04 21:57 | 35.04181 | -80.68590 | 9139 ft | 302 kts | 60° |
| 2026-05-04 21:57 | 35.05172 | -80.66316 | 9944 ft | 305 kts | 60° |
| 2026-05-04 21:57 | 35.06191 | -80.63986 | 10385 ft | 322 kts | 60° |
| 2026-05-04 21:57 | 35.07290 | -80.61494 | 10559 ft | 345 kts | 60° |
| 2026-05-04 21:58 | 35.08458 | -80.58854 | 10929 ft | 359 kts | 60° |
| 2026-05-04 21:58 | 35.09655 | -80.56144 | 11572 ft | 365 kts | 60° |
| 2026-05-04 21:58 | 35.10867 | -80.53402 | 12270 ft | 369 kts | 59° |
| 2026-05-04 21:58 | 35.12092 | -80.50629 | 12985 ft | 372 kts | 59° |
| 2026-05-04 21:59 | 35.13329 | -80.47832 | 13661 ft | 377 kts | 59° |
| 2026-05-04 21:59 | 35.14582 | -80.44995 | 14259 ft | 381 kts | 59° |
| 2026-05-04 21:59 | 35.15842 | -80.42135 | 14885 ft | 384 kts | 59° |
| 2026-05-04 21:59 | 35.17112 | -80.39249 | 15493 ft | 387 kts | 59° |
| 2026-05-04 22:00 | 35.18394 | -80.36340 | 16099 ft | 390 kts | 59° |
| 2026-05-04 22:00 | 35.19682 | -80.33412 | 16705 ft | 393 kts | 59° |
| 2026-05-04 22:00 | 35.20985 | -80.30455 | 17292 ft | 396 kts | 59° |
| 2026-05-04 22:00 | 35.22294 | -80.27483 | 17901 ft | 399 kts | 59° |
| 2026-05-04 22:01 | 35.23605 | -80.24503 | 18473 ft | 402 kts | 59° |
| 2026-05-04 22:01 | 35.24922 | -80.21501 | 18959 ft | 406 kts | 59° |
| 2026-05-04 22:01 | 35.26269 | -80.18427 | 19342 ft | 413 kts | 59° |
| 2026-05-04 22:01 | 35.27635 | -80.15308 | 19811 ft | 417 kts | 58° |
| 2026-05-04 22:02 | 35.29007 | -80.12165 | 20317 ft | 420 kts | 59° |
| 2026-05-04 22:02 | 35.30289 | -80.08922 | 20790 ft | 427 kts | 66° |
| 2026-05-04 22:02 | 35.31286 | -80.05536 | 21250 ft | 431 kts | 68° |
| 2026-05-04 22:02 | 35.32297 | -80.02057 | 21693 ft | 435 kts | 68° |
| 2026-05-04 22:03 | 35.33333 | -79.98509 | 22142 ft | 439 kts | 68° |
| 2026-05-04 22:03 | 35.34366 | -79.94979 | 22612 ft | 442 kts | 68° |
| 2026-05-04 22:03 | 35.35392 | -79.91466 | 23037 ft | 445 kts | 68° |
| 2026-05-04 22:03 | 35.36436 | -79.87886 | 23460 ft | 448 kts | 68° |
| 2026-05-04 22:04 | 35.37488 | -79.84274 | 23827 ft | 451 kts | 68° |
| 2026-05-04 22:04 | 35.38545 | -79.80640 | 24166 ft | 454 kts | 68° |
| 2026-05-04 22:04 | 35.39609 | -79.76981 | 24514 ft | 456 kts | 68° |
| 2026-05-04 22:04 | 35.40676 | -79.73309 | 24847 ft | 459 kts | 68° |
| 2026-05-04 22:05 | 35.41748 | -79.69612 | 25175 ft | 461 kts | 68° |
| 2026-05-04 22:05 | 35.42824 | -79.65898 | 25500 ft | 464 kts | 68° |
| 2026-05-04 22:05 | 35.43904 | -79.62162 | 25821 ft | 467 kts | 68° |
| 2026-05-04 22:05 | 35.44991 | -79.58403 | 26126 ft | 469 kts | 68° |
| 2026-05-04 22:06 | 35.46082 | -79.54621 | 26441 ft | 472 kts | 68° |
| 2026-05-04 22:06 | 35.47178 | -79.50812 | 26740 ft | 474 kts | 68° |
| 2026-05-04 22:06 | 35.48278 | -79.46991 | 27032 ft | 476 kts | 68° |
| 2026-05-04 22:06 | 35.49384 | -79.43149 | 27317 ft | 479 kts | 68° |
| 2026-05-04 22:07 | 35.50495 | -79.39290 | 27593 ft | 481 kts | 68° |
| 2026-05-04 22:07 | 35.51612 | -79.35403 | 27866 ft | 484 kts | 68° |
| 2026-05-04 22:07 | 35.52732 | -79.31500 | 28132 ft | 486 kts | 68° |
| 2026-05-04 22:07 | 35.53855 | -79.27575 | 28397 ft | 488 kts | 68° |
| 2026-05-04 22:08 | 35.54980 | -79.23631 | 28644 ft | 491 kts | 68° |
| 2026-05-04 22:08 | 35.56105 | -79.19670 | 28884 ft | 493 kts | 68° |
| 2026-05-04 22:08 | 35.57242 | -79.15685 | 29117 ft | 495 kts | 67° |
| 2026-05-04 22:08 | 35.58639 | -79.11836 | 29342 ft | 493 kts | 58° |
| 2026-05-04 22:09 | 35.60464 | -79.08290 | 29561 ft | 490 kts | 49° |
| 2026-05-04 22:09 | 35.62668 | -79.05118 | 29770 ft | 487 kts | 40° |
| 2026-05-04 22:09 | 35.65163 | -79.02329 | 30035 ft | 484 kts | 36° |
| 2026-05-04 22:09 | 35.67697 | -78.99601 | 30310 ft | 484 kts | 36° |
| 2026-05-04 22:10 | 35.70226 | -78.96867 | 30571 ft | 484 kts | 36° |
| 2026-05-04 22:10 | 35.72752 | -78.94132 | 30828 ft | 484 kts | 36° |
| 2026-05-04 22:10 | 35.75275 | -78.91393 | 31115 ft | 484 kts | 36° |
| 2026-05-04 22:10 | 35.77794 | -78.88652 | 31378 ft | 483 kts | 37° |
| 2026-05-04 22:11 | 35.80313 | -78.85907 | 31637 ft | 483 kts | 37° |
| 2026-05-04 22:11 | 35.82830 | -78.83164 | 31897 ft | 483 kts | 37° |
| 2026-05-04 22:11 | 35.85347 | -78.80422 | 32156 ft | 483 kts | 36° |
| 2026-05-04 22:11 | 35.87865 | -78.77679 | 32412 ft | 483 kts | 36° |
| 2026-05-04 22:12 | 35.90396 | -78.74962 | 32671 ft | 482 kts | 36° |
| 2026-05-04 22:12 | 35.92945 | -78.72281 | 32937 ft | 481 kts | 35° |
| 2026-05-04 22:12 | 35.95502 | -78.69623 | 33200 ft | 481 kts | 35° |
| 2026-05-04 22:12 | 35.98066 | -78.66966 | 33459 ft | 481 kts | 35° |
| 2026-05-04 22:13 | 36.00634 | -78.64297 | 33677 ft | 482 kts | 35° |
| 2026-05-04 22:13 | 36.03194 | -78.61620 | 33921 ft | 483 kts | 35° |
| 2026-05-04 22:13 | 36.05753 | -78.58930 | 34151 ft | 483 kts | 35° |
| 2026-05-04 22:13 | 36.08304 | -78.56237 | 34371 ft | 483 kts | 35° |
| 2026-05-04 22:14 | 36.10855 | -78.53541 | 34591 ft | 483 kts | 35° |
| 2026-05-04 22:14 | 36.13406 | -78.50843 | 34803 ft | 482 kts | 35° |
| 2026-05-04 22:14 | 36.15956 | -78.48147 | 35018 ft | 482 kts | 35° |
| 2026-05-04 22:14 | 36.18470 | -78.45483 | 35203 ft | 482 kts | 35° |
| 2026-05-04 22:15 | 36.21017 | -78.42784 | 35416 ft | 483 kts | 35° |
| 2026-05-04 22:15 | 36.23570 | -78.40076 | 35594 ft | 483 kts | 35° |
| 2026-05-04 22:15 | 36.26117 | -78.37373 | 35790 ft | 482 kts | 35° |
| 2026-05-04 22:15 | 36.28701 | -78.34633 | 35980 ft | 482 kts | 35° |
| 2026-05-04 22:16 | 36.31214 | -78.31966 | 36159 ft | 482 kts | 35° |
| 2026-05-04 22:16 | 36.33755 | -78.29266 | 36342 ft | 482 kts | 35° |
| 2026-05-04 22:16 | 36.36298 | -78.26558 | 36517 ft | 481 kts | 35° |
| 2026-05-04 22:16 | 36.38824 | -78.23839 | 36679 ft | 482 kts | 36° |
| 2026-05-04 22:17 | 36.41310 | -78.21038 | 36882 ft | 482 kts | 37° |
| 2026-05-04 22:17 | 36.43748 | -78.18176 | 36995 ft | 483 kts | 38° |
| 2026-05-04 22:17 | 36.46165 | -78.15273 | 37011 ft | 484 kts | 39° |
| 2026-05-04 22:18 | 36.50993 | -78.09445 | 37001 ft | 483 kts | 38° |
| 2026-05-04 22:18 | 36.55857 | -78.03670 | 37008 ft | 483 kts | 38° |
| 2026-05-04 22:19 | 36.60744 | -77.97935 | 37055 ft | 483 kts | 38° |
| 2026-05-04 22:19 | 36.65628 | -77.92180 | 37052 ft | 483 kts | 38° |
| 2026-05-04 22:20 | 36.70510 | -77.86406 | 37039 ft | 484 kts | 38° |
| 2026-05-04 22:20 | 36.75385 | -77.80618 | 36999 ft | 484 kts | 38° |
| 2026-05-04 22:21 | 36.80264 | -77.74813 | 37003 ft | 485 kts | 38° |
| 2026-05-04 22:21 | 36.85143 | -77.69003 | 37031 ft | 485 kts | 38° |
| 2026-05-04 22:22 | 36.90020 | -77.63194 | 37021 ft | 484 kts | 38° |
| 2026-05-04 22:22 | 36.94898 | -77.57370 | 36963 ft | 486 kts | 38° |
| 2026-05-04 22:23 | 36.99795 | -77.51509 | 36965 ft | 488 kts | 39° |
| 2026-05-04 22:23 | 37.04705 | -77.45621 | 36971 ft | 489 kts | 39° |
| 2026-05-04 22:24 | 37.09618 | -77.39723 | 37011 ft | 489 kts | 39° |
| 2026-05-04 22:24 | 37.14528 | -77.33822 | 37014 ft | 489 kts | 39° |
| 2026-05-04 22:25 | 37.19431 | -77.27924 | 37009 ft | 488 kts | 39° |
| 2026-05-04 22:25 | 37.24320 | -77.22009 | 36999 ft | 489 kts | 39° |
| 2026-05-04 22:26 | 37.29218 | -77.16088 | 37002 ft | 488 kts | 39° |
| 2026-05-04 22:26 | 37.34074 | -77.10206 | 36995 ft | 488 kts | 40° |
| 2026-05-04 22:27 | 37.38950 | -77.04280 | 36988 ft | 487 kts | 40° |
| 2026-05-04 22:27 | 37.43826 | -76.98353 | 36986 ft | 487 kts | 39° |
| 2026-05-04 22:28 | 37.49237 | -76.93443 | 37005 ft | 475 kts | 23° |
| 2026-05-04 22:28 | 37.55074 | -76.89589 | 36998 ft | 473 kts | 23° |
| 2026-05-04 22:29 | 37.60888 | -76.85729 | 36997 ft | 472 kts | 23° |
| 2026-05-04 22:29 | 37.66699 | -76.81852 | 36981 ft | 473 kts | 23° |
| 2026-05-04 22:30 | 37.72510 | -76.77962 | 36967 ft | 473 kts | 23° |
| 2026-05-04 22:30 | 37.78326 | -76.74067 | 36961 ft | 473 kts | 23° |
| 2026-05-04 22:31 | 37.84143 | -76.70170 | 36956 ft | 473 kts | 23° |
| 2026-05-04 22:31 | 37.89973 | -76.66292 | 36966 ft | 473 kts | 23° |
| 2026-05-04 22:32 | 37.95843 | -76.62573 | 36971 ft | 471 kts | 22° |
| 2026-05-04 22:32 | 38.01713 | -76.58904 | 36974 ft | 470 kts | 22° |
| 2026-05-04 22:33 | 38.07564 | -76.55214 | 36977 ft | 470 kts | 22° |
| 2026-05-04 22:33 | 38.12416 | -76.52122 | 36996 ft | 469 kts | 22° |
| 2026-05-04 22:34 | 38.18228 | -76.48411 | 36987 ft | 468 kts | 22° |
| 2026-05-04 22:34 | 38.20154 | -76.47182 | 36985 ft | 468 kts | 22° |